sensor_id;sensor_type;location;lat;lon;timestamp;P1;durP1;ratioP1;P2;durP2;ratioP2
75837;SDS011;64480;52.040;113.502;2024-02-23T00:02:59;22.27;;;9.75;;
75837;SDS011;64480;52.040;113.502;2024-02-23T00:06:02;42.42;;;11.70;;
75837;SDS011;64480;52.040;113.502;2024-02-23T00:09:07;7.43;;;5.68;;
75837;SDS011;64480;52.040;113.502;2024-02-23T00:12:10;32.55;;;13.15;;
75837;SDS011;64480;52.040;113.502;2024-02-23T00:15:14;21.55;;;12.48;;
75837;SDS011;64480;52.040;113.502;2024-02-23T00:18:17;32.83;;;10.93;;
75837;SDS011;64480;52.040;113.502;2024-02-23T00:21:23;30.95;;;17.48;;
75837;SDS011;64480;52.040;113.502;2024-02-23T00:24:26;11.52;;;6.43;;
75837;SDS011;64480;52.040;113.502;2024-02-23T00:27:30;32.20;;;14.40;;
75837;SDS011;64480;52.040;113.502;2024-02-23T00:30:35;20.85;;;9.70;;
75837;SDS011;64480;52.040;113.502;2024-02-23T00:33:39;16.38;;;8.85;;
75837;SDS011;64480;52.040;113.502;2024-02-23T00:36:45;24.85;;;11.18;;
75837;SDS011;64480;52.040;113.502;2024-02-23T00:39:48;29.98;;;9.73;;
75837;SDS011;64480;52.040;113.502;2024-02-23T00:42:55;17.15;;;9.73;;
75837;SDS011;64480;52.040;113.502;2024-02-23T00:45:59;46.28;;;12.57;;
75837;SDS011;64480;52.040;113.502;2024-02-23T00:49:03;41.47;;;16.35;;
75837;SDS011;64480;52.040;113.502;2024-02-23T00:52:07;22.75;;;14.88;;
75837;SDS011;64480;52.040;113.502;2024-02-23T00:55:10;38.63;;;19.85;;
75837;SDS011;64480;52.040;113.502;2024-02-23T00:58:14;55.13;;;13.60;;
75837;SDS011;64480;52.040;113.502;2024-02-23T01:01:18;15.13;;;9.07;;
75837;SDS011;64480;52.040;113.502;2024-02-23T01:04:25;17.25;;;9.45;;
75837;SDS011;64480;52.040;113.502;2024-02-23T01:07:29;19.33;;;9.10;;
75837;SDS011;64480;52.040;113.502;2024-02-23T01:10:34;20.05;;;6.05;;
75837;SDS011;64480;52.040;113.502;2024-02-23T01:13:37;20.60;;;9.80;;
75837;SDS011;64480;52.040;113.502;2024-02-23T01:16:41;22.55;;;8.98;;
75837;SDS011;64480;52.040;113.502;2024-02-23T01:19:45;32.25;;;13.07;;
75837;SDS011;64480;52.040;113.502;2024-02-23T01:22:49;42.28;;;14.77;;
75837;SDS011;64480;52.040;113.502;2024-02-23T01:25:55;22.00;;;10.70;;
75837;SDS011;64480;52.040;113.502;2024-02-23T01:28:59;29.05;;;14.70;;
75837;SDS011;64480;52.040;113.502;2024-02-23T01:32:03;14.90;;;12.05;;
75837;SDS011;64480;52.040;113.502;2024-02-23T01:35:07;31.25;;;13.48;;
75837;SDS011;64480;52.040;113.502;2024-02-23T01:38:11;30.67;;;17.10;;
75837;SDS011;64480;52.040;113.502;2024-02-23T01:41:14;30.30;;;18.00;;
75837;SDS011;64480;52.040;113.502;2024-02-23T01:44:18;54.97;;;26.50;;
75837;SDS011;64480;52.040;113.502;2024-02-23T01:47:24;37.28;;;18.10;;
75837;SDS011;64480;52.040;113.502;2024-02-23T01:50:29;29.73;;;16.60;;
75837;SDS011;64480;52.040;113.502;2024-02-23T01:53:33;47.05;;;13.82;;
75837;SDS011;64480;52.040;113.502;2024-02-23T01:56:37;47.08;;;25.67;;
75837;SDS011;64480;52.040;113.502;2024-02-23T01:59:42;35.22;;;20.33;;
75837;SDS011;64480;52.040;113.502;2024-02-23T02:02:49;32.78;;;17.15;;
75837;SDS011;64480;52.040;113.502;2024-02-23T02:05:56;47.33;;;16.83;;
75837;SDS011;64480;52.040;113.502;2024-02-23T02:09:03;27.88;;;17.75;;
75837;SDS011;64480;52.040;113.502;2024-02-23T02:12:06;60.88;;;25.67;;
75837;SDS011;64480;52.040;113.502;2024-02-23T02:15:09;26.63;;;11.50;;
75837;SDS011;64480;52.040;113.502;2024-02-23T02:18:13;47.20;;;17.35;;
75837;SDS011;64480;52.040;113.502;2024-02-23T02:21:17;32.75;;;20.17;;
75837;SDS011;64480;52.040;113.502;2024-02-23T02:24:21;35.78;;;22.40;;
75837;SDS011;64480;52.040;113.502;2024-02-23T02:27:25;49.22;;;20.58;;
75837;SDS011;64480;52.040;113.502;2024-02-23T02:30:29;46.83;;;20.77;;
75837;SDS011;64480;52.040;113.502;2024-02-23T02:33:33;25.42;;;16.60;;
75837;SDS011;64480;52.040;113.502;2024-02-23T02:36:38;36.28;;;25.90;;
75837;SDS011;64480;52.040;113.502;2024-02-23T02:39:42;33.67;;;19.42;;
75837;SDS011;64480;52.040;113.502;2024-02-23T02:42:46;36.97;;;19.38;;
75837;SDS011;64480;52.040;113.502;2024-02-23T02:45:50;45.30;;;18.55;;
75837;SDS011;64480;52.040;113.502;2024-02-23T02:48:56;33.15;;;14.63;;
75837;SDS011;64480;52.040;113.502;2024-02-23T02:51:59;44.72;;;20.23;;
75837;SDS011;64480;52.040;113.502;2024-02-23T02:55:03;35.03;;;17.35;;
75837;SDS011;64480;52.040;113.502;2024-02-23T02:58:08;31.85;;;18.60;;
75837;SDS011;64480;52.040;113.502;2024-02-23T03:01:12;35.90;;;18.92;;
75837;SDS011;64480;52.040;113.502;2024-02-23T03:04:16;26.42;;;12.57;;
75837;SDS011;64480;52.040;113.502;2024-02-23T03:07:21;44.55;;;21.23;;
75837;SDS011;64480;52.040;113.502;2024-02-23T03:10:24;33.60;;;19.30;;
75837;SDS011;64480;52.040;113.502;2024-02-23T03:13:30;34.38;;;17.38;;
75837;SDS011;64480;52.040;113.502;2024-02-23T03:16:34;49.95;;;18.45;;
75837;SDS011;64480;52.040;113.502;2024-02-23T03:19:40;44.47;;;17.48;;
75837;SDS011;64480;52.040;113.502;2024-02-23T03:22:44;55.10;;;20.77;;
75837;SDS011;64480;52.040;113.502;2024-02-23T03:25:48;55.58;;;21.33;;
75837;SDS011;64480;52.040;113.502;2024-02-23T03:28:54;47.33;;;19.02;;
75837;SDS011;64480;52.040;113.502;2024-02-23T03:31:57;59.58;;;24.63;;
75837;SDS011;64480;52.040;113.502;2024-02-23T03:35:04;64.57;;;26.85;;
75837;SDS011;64480;52.040;113.502;2024-02-23T03:38:09;76.13;;;27.95;;
75837;SDS011;64480;52.040;113.502;2024-02-23T03:41:15;61.38;;;21.13;;
75837;SDS011;64480;52.040;113.502;2024-02-23T03:44:18;58.42;;;20.45;;
75837;SDS011;64480;52.040;113.502;2024-02-23T03:47:23;67.28;;;25.15;;
75837;SDS011;64480;52.040;113.502;2024-02-23T03:50:26;23.08;;;13.98;;
75837;SDS011;64480;52.040;113.502;2024-02-23T03:53:30;31.05;;;15.57;;
75837;SDS011;64480;52.040;113.502;2024-02-23T03:56:39;64.15;;;25.67;;
75837;SDS011;64480;52.040;113.502;2024-02-23T03:59:56;61.55;;;23.92;;
75837;SDS011;64480;52.040;113.502;2024-02-23T04:03:00;75.30;;;29.00;;
75837;SDS011;64480;52.040;113.502;2024-02-23T04:06:03;41.75;;;18.50;;
75837;SDS011;64480;52.040;113.502;2024-02-23T04:09:07;41.55;;;20.67;;
75837;SDS011;64480;52.040;113.502;2024-02-23T04:12:13;43.70;;;19.15;;
75837;SDS011;64480;52.040;113.502;2024-02-23T04:15:17;50.35;;;20.23;;
75837;SDS011;64480;52.040;113.502;2024-02-23T04:18:21;69.97;;;22.25;;
75837;SDS011;64480;52.040;113.502;2024-02-23T04:21:25;49.78;;;19.45;;
75837;SDS011;64480;52.040;113.502;2024-02-23T04:24:29;61.38;;;18.98;;
75837;SDS011;64480;52.040;113.502;2024-02-23T04:27:32;68.28;;;22.23;;
75837;SDS011;64480;52.040;113.502;2024-02-23T04:30:36;47.95;;;19.58;;
75837;SDS011;64480;52.040;113.502;2024-02-23T04:33:39;53.70;;;22.25;;
75837;SDS011;64480;52.040;113.502;2024-02-23T04:36:43;49.33;;;19.98;;
75837;SDS011;64480;52.040;113.502;2024-02-23T04:39:47;74.85;;;19.83;;
75837;SDS011;64480;52.040;113.502;2024-02-23T04:42:59;74.93;;;20.90;;
75837;SDS011;64480;52.040;113.502;2024-02-23T04:46:03;63.63;;;22.08;;
75837;SDS011;64480;52.040;113.502;2024-02-23T04:49:07;46.40;;;19.15;;
75837;SDS011;64480;52.040;113.502;2024-02-23T04:52:11;53.10;;;21.75;;
75837;SDS011;64480;52.040;113.502;2024-02-23T04:55:14;64.88;;;24.77;;
75837;SDS011;64480;52.040;113.502;2024-02-23T04:58:17;49.20;;;17.60;;
75837;SDS011;64480;52.040;113.502;2024-02-23T05:01:20;57.05;;;19.85;;
75837;SDS011;64480;52.040;113.502;2024-02-23T05:04:25;48.63;;;16.50;;
75837;SDS011;64480;52.040;113.502;2024-02-23T05:07:32;53.90;;;21.05;;
75837;SDS011;64480;52.040;113.502;2024-02-23T05:13:41;47.63;;;17.77;;
75837;SDS011;64480;52.040;113.502;2024-02-23T05:16:44;47.75;;;14.77;;
75837;SDS011;64480;52.040;113.502;2024-02-23T05:19:48;41.67;;;13.07;;
75837;SDS011;64480;52.040;113.502;2024-02-23T05:22:52;46.42;;;12.68;;
75837;SDS011;64480;52.040;113.502;2024-02-23T05:25:58;40.63;;;17.95;;
75837;SDS011;64480;52.040;113.502;2024-02-23T05:29:02;70.43;;;14.45;;
75837;SDS011;64480;52.040;113.502;2024-02-23T05:32:06;40.72;;;14.98;;
75837;SDS011;64480;52.040;113.502;2024-02-23T05:35:11;28.33;;;12.40;;
75837;SDS011;64480;52.040;113.502;2024-02-23T05:38:15;48.45;;;12.40;;
75837;SDS011;64480;52.040;113.502;2024-02-23T05:41:19;35.25;;;11.50;;
75837;SDS011;64480;52.040;113.502;2024-02-23T05:44:23;47.28;;;11.75;;
75837;SDS011;64480;52.040;113.502;2024-02-23T05:47:27;46.03;;;12.65;;
75837;SDS011;64480;52.040;113.502;2024-02-23T05:50:30;43.33;;;15.98;;
75837;SDS011;64480;52.040;113.502;2024-02-23T05:53:35;71.35;;;17.52;;
75837;SDS011;64480;52.040;113.502;2024-02-23T05:56:38;42.25;;;12.63;;
75837;SDS011;64480;52.040;113.502;2024-02-23T05:59:42;47.75;;;16.30;;
75837;SDS011;64480;52.040;113.502;2024-02-23T06:02:45;50.55;;;15.00;;
75837;SDS011;64480;52.040;113.502;2024-02-23T06:05:49;39.83;;;13.43;;
75837;SDS011;64480;52.040;113.502;2024-02-23T06:08:52;49.22;;;12.88;;
75837;SDS011;64480;52.040;113.502;2024-02-23T06:12:00;37.63;;;15.10;;
75837;SDS011;64480;52.040;113.502;2024-02-23T06:15:04;58.17;;;16.73;;
75837;SDS011;64480;52.040;113.502;2024-02-23T06:18:08;45.33;;;13.55;;
75837;SDS011;64480;52.040;113.502;2024-02-23T06:21:12;42.08;;;16.08;;
75837;SDS011;64480;52.040;113.502;2024-02-23T06:24:20;48.38;;;15.98;;
75837;SDS011;64480;52.040;113.502;2024-02-23T06:27:24;39.20;;;14.27;;
75837;SDS011;64480;52.040;113.502;2024-02-23T06:30:28;49.75;;;16.20;;
75837;SDS011;64480;52.040;113.502;2024-02-23T06:33:35;48.85;;;16.38;;
75837;SDS011;64480;52.040;113.502;2024-02-23T06:36:39;57.80;;;15.15;;
75837;SDS011;64480;52.040;113.502;2024-02-23T06:39:43;60.47;;;16.00;;
75837;SDS011;64480;52.040;113.502;2024-02-23T06:42:48;33.92;;;14.50;;
75837;SDS011;64480;52.040;113.502;2024-02-23T06:46:07;44.75;;;14.30;;
75837;SDS011;64480;52.040;113.502;2024-02-23T06:49:12;52.78;;;18.48;;
75837;SDS011;64480;52.040;113.502;2024-02-23T06:52:15;47.58;;;17.05;;
75837;SDS011;64480;52.040;113.502;2024-02-23T06:55:23;36.90;;;14.95;;
75837;SDS011;64480;52.040;113.502;2024-02-23T06:58:28;51.05;;;15.18;;
75837;SDS011;64480;52.040;113.502;2024-02-23T07:01:33;51.50;;;17.85;;
75837;SDS011;64480;52.040;113.502;2024-02-23T07:04:41;43.22;;;16.50;;
75837;SDS011;64480;52.040;113.502;2024-02-23T07:07:46;40.45;;;13.80;;
75837;SDS011;64480;52.040;113.502;2024-02-23T07:10:49;36.25;;;13.95;;
75837;SDS011;64480;52.040;113.502;2024-02-23T07:13:52;34.53;;;12.65;;
75837;SDS011;64480;52.040;113.502;2024-02-23T07:16:59;27.55;;;12.13;;
75837;SDS011;64480;52.040;113.502;2024-02-23T07:20:03;29.08;;;12.75;;
75837;SDS011;64480;52.040;113.502;2024-02-23T07:23:08;25.33;;;10.30;;
75837;SDS011;64480;52.040;113.502;2024-02-23T07:26:12;28.15;;;11.00;;
75837;SDS011;64480;52.040;113.502;2024-02-23T07:29:15;45.20;;;12.77;;
75837;SDS011;64480;52.040;113.502;2024-02-23T07:32:20;26.95;;;11.18;;
75837;SDS011;64480;52.040;113.502;2024-02-23T07:35:24;26.98;;;10.40;;
75837;SDS011;64480;52.040;113.502;2024-02-23T07:38:28;34.83;;;11.52;;
75837;SDS011;64480;52.040;113.502;2024-02-23T07:41:32;55.22;;;12.95;;
75837;SDS011;64480;52.040;113.502;2024-02-23T07:44:36;30.88;;;13.25;;
75837;SDS011;64480;52.040;113.502;2024-02-23T07:47:40;32.25;;;11.07;;
75837;SDS011;64480;52.040;113.502;2024-02-23T07:50:44;29.45;;;10.13;;
75837;SDS011;64480;52.040;113.502;2024-02-23T07:53:48;38.70;;;11.93;;
75837;SDS011;64480;52.040;113.502;2024-02-23T07:56:53;40.20;;;10.93;;
75837;SDS011;64480;52.040;113.502;2024-02-23T08:00:01;30.98;;;13.07;;
75837;SDS011;64480;52.040;113.502;2024-02-23T08:03:12;33.47;;;11.32;;
75837;SDS011;64480;52.040;113.502;2024-02-23T08:06:16;37.15;;;12.95;;
75837;SDS011;64480;52.040;113.502;2024-02-23T08:09:20;36.40;;;12.25;;
75837;SDS011;64480;52.040;113.502;2024-02-23T08:12:26;29.50;;;10.63;;
75837;SDS011;64480;52.040;113.502;2024-02-23T08:15:46;34.85;;;10.68;;
75837;SDS011;64480;52.040;113.502;2024-02-23T08:19:09;28.63;;;10.13;;
75837;SDS011;64480;52.040;113.502;2024-02-23T08:22:12;27.15;;;11.52;;
75837;SDS011;64480;52.040;113.502;2024-02-23T08:25:18;40.10;;;12.20;;
75837;SDS011;64480;52.040;113.502;2024-02-23T08:28:23;33.33;;;11.48;;
75837;SDS011;64480;52.040;113.502;2024-02-23T08:31:27;43.28;;;11.45;;
75837;SDS011;64480;52.040;113.502;2024-02-23T08:34:33;32.95;;;12.00;;
75837;SDS011;64480;52.040;113.502;2024-02-23T08:37:38;29.15;;;12.93;;
75837;SDS011;64480;52.040;113.502;2024-02-23T08:40:43;25.63;;;11.20;;
75837;SDS011;64480;52.040;113.502;2024-02-23T08:46:55;26.63;;;11.68;;
75837;SDS011;64480;52.040;113.502;2024-02-23T08:50:02;54.97;;;13.27;;
75837;SDS011;64480;52.040;113.502;2024-02-23T08:53:09;38.42;;;11.60;;
75837;SDS011;64480;52.040;113.502;2024-02-23T08:56:15;40.33;;;12.70;;
75837;SDS011;64480;52.040;113.502;2024-02-23T08:59:18;25.52;;;11.73;;
75837;SDS011;64480;52.040;113.502;2024-02-23T09:02:29;35.20;;;12.07;;
75837;SDS011;64480;52.040;113.502;2024-02-23T09:05:33;37.70;;;13.82;;
75837;SDS011;64480;52.040;113.502;2024-02-23T09:08:48;46.13;;;15.43;;
75837;SDS011;64480;52.040;113.502;2024-02-23T09:11:55;41.20;;;13.05;;
75837;SDS011;64480;52.040;113.502;2024-02-23T09:15:03;40.72;;;13.45;;
75837;SDS011;64480;52.040;113.502;2024-02-23T09:18:08;36.47;;;11.50;;
75837;SDS011;64480;52.040;113.502;2024-02-23T09:21:13;44.20;;;12.13;;
75837;SDS011;64480;52.040;113.502;2024-02-23T09:24:19;28.67;;;10.82;;
75837;SDS011;64480;52.040;113.502;2024-02-23T09:27:24;30.90;;;11.60;;
75837;SDS011;64480;52.040;113.502;2024-02-23T09:30:33;27.35;;;10.68;;
75837;SDS011;64480;52.040;113.502;2024-02-23T09:33:38;26.15;;;12.63;;
75837;SDS011;64480;52.040;113.502;2024-02-23T09:36:42;34.83;;;12.65;;
75837;SDS011;64480;52.040;113.502;2024-02-23T09:39:50;25.42;;;11.85;;
75837;SDS011;64480;52.040;113.502;2024-02-23T09:43:03;30.90;;;12.10;;
75837;SDS011;64480;52.040;113.502;2024-02-23T09:46:12;28.60;;;12.32;;
75837;SDS011;64480;52.040;113.502;2024-02-23T09:49:17;39.55;;;15.38;;
75837;SDS011;64480;52.040;113.502;2024-02-23T09:52:25;40.55;;;12.30;;
75837;SDS011;64480;52.040;113.502;2024-02-23T09:55:31;35.13;;;13.50;;
75837;SDS011;64480;52.040;113.502;2024-02-23T09:58:40;76.70;;;16.52;;
75837;SDS011;64480;52.040;113.502;2024-02-23T10:01:45;41.00;;;14.38;;
75837;SDS011;64480;52.040;113.502;2024-02-23T10:04:49;48.80;;;14.52;;
75837;SDS011;64480;52.040;113.502;2024-02-23T10:07:59;58.97;;;14.00;;
75837;SDS011;64480;52.040;113.502;2024-02-23T10:11:04;44.60;;;15.18;;
75837;SDS011;64480;52.040;113.502;2024-02-23T10:14:09;24.15;;;8.85;;
75837;SDS011;64480;52.040;113.502;2024-02-23T10:17:15;41.97;;;11.32;;
75837;SDS011;64480;52.040;113.502;2024-02-23T10:20:22;28.88;;;7.50;;
75837;SDS011;64480;52.040;113.502;2024-02-23T10:23:30;16.45;;;7.05;;
75837;SDS011;64480;52.040;113.502;2024-02-23T10:26:40;16.52;;;7.25;;
75837;SDS011;64480;52.040;113.502;2024-02-23T10:29:43;24.23;;;6.13;;
75837;SDS011;64480;52.040;113.502;2024-02-23T10:32:53;19.33;;;6.82;;
75837;SDS011;64480;52.040;113.502;2024-02-23T10:36:03;20.95;;;9.60;;
75837;SDS011;64480;52.040;113.502;2024-02-23T10:39:08;18.33;;;6.47;;
75837;SDS011;64480;52.040;113.502;2024-02-23T10:42:20;34.13;;;9.88;;
75837;SDS011;64480;52.040;113.502;2024-02-23T10:45:31;35.50;;;10.25;;
75837;SDS011;64480;52.040;113.502;2024-02-23T10:48:36;33.42;;;8.75;;
75837;SDS011;64480;52.040;113.502;2024-02-23T10:51:42;45.83;;;9.38;;
75837;SDS011;64480;52.040;113.502;2024-02-23T10:54:47;24.63;;;7.15;;
75837;SDS011;64480;52.040;113.502;2024-02-23T11:01:03;20.38;;;7.93;;
75837;SDS011;64480;52.040;113.502;2024-02-23T11:04:11;40.20;;;8.93;;
75837;SDS011;64480;52.040;113.502;2024-02-23T11:07:19;25.60;;;8.63;;
75837;SDS011;64480;52.040;113.502;2024-02-23T11:10:31;25.83;;;10.27;;
75837;SDS011;64480;52.040;113.502;2024-02-23T11:13:39;55.03;;;14.82;;
75837;SDS011;64480;52.040;113.502;2024-02-23T11:16:44;36.10;;;12.13;;
75837;SDS011;64480;52.040;113.502;2024-02-23T11:19:55;25.45;;;10.50;;
75837;SDS011;64480;52.040;113.502;2024-02-23T11:23:12;49.55;;;14.20;;
75837;SDS011;64480;52.040;113.502;2024-02-23T11:26:19;33.70;;;8.75;;
75837;SDS011;64480;52.040;113.502;2024-02-23T11:29:27;53.50;;;9.93;;
75837;SDS011;64480;52.040;113.502;2024-02-23T11:32:43;41.28;;;10.48;;
75837;SDS011;64480;52.040;113.502;2024-02-23T11:35:50;25.38;;;9.45;;
75837;SDS011;64480;52.040;113.502;2024-02-23T11:38:56;41.47;;;10.68;;
75837;SDS011;64480;52.040;113.502;2024-02-23T11:42:07;12.60;;;5.43;;
75837;SDS011;64480;52.040;113.502;2024-02-23T11:45:12;7.15;;;4.07;;
75837;SDS011;64480;52.040;113.502;2024-02-23T11:48:16;25.27;;;8.15;;
75837;SDS011;64480;52.040;113.502;2024-02-23T11:51:26;25.90;;;9.20;;
75837;SDS011;64480;52.040;113.502;2024-02-23T11:54:33;48.42;;;12.32;;
75837;SDS011;64480;52.040;113.502;2024-02-23T11:57:36;47.17;;;15.32;;
75837;SDS011;64480;52.040;113.502;2024-02-23T12:00:50;46.92;;;13.50;;
75837;SDS011;64480;52.040;113.502;2024-02-23T12:03:56;30.20;;;10.45;;
75837;SDS011;64480;52.040;113.502;2024-02-23T12:07:03;20.30;;;7.70;;
75837;SDS011;64480;52.040;113.502;2024-02-23T12:10:11;20.48;;;5.65;;
75837;SDS011;64480;52.040;113.502;2024-02-23T12:13:17;15.20;;;7.15;;
75837;SDS011;64480;52.040;113.502;2024-02-23T12:16:21;16.10;;;7.63;;
75837;SDS011;64480;52.040;113.502;2024-02-23T12:19:38;32.95;;;13.38;;
75837;SDS011;64480;52.040;113.502;2024-02-23T12:22:48;28.35;;;9.63;;
75837;SDS011;64480;52.040;113.502;2024-02-23T12:25:58;28.38;;;11.90;;
75837;SDS011;64480;52.040;113.502;2024-02-23T12:29:06;51.83;;;10.85;;
75837;SDS011;64480;52.040;113.502;2024-02-23T12:32:10;54.90;;;12.90;;
75837;SDS011;64480;52.040;113.502;2024-02-23T12:35:14;38.30;;;11.82;;
75837;SDS011;64480;52.040;113.502;2024-02-23T12:38:20;47.35;;;9.43;;
75837;SDS011;64480;52.040;113.502;2024-02-23T12:41:28;48.58;;;11.02;;
75837;SDS011;64480;52.040;113.502;2024-02-23T12:44:31;69.93;;;19.08;;
75837;SDS011;64480;52.040;113.502;2024-02-23T12:47:37;51.00;;;16.45;;
75837;SDS011;64480;52.040;113.502;2024-02-23T12:50:41;56.00;;;29.23;;
75837;SDS011;64480;52.040;113.502;2024-02-23T12:53:50;60.70;;;21.67;;
75837;SDS011;64480;52.040;113.502;2024-02-23T12:56:53;64.95;;;23.73;;
75837;SDS011;64480;52.040;113.502;2024-02-23T13:00:01;55.47;;;20.95;;
75837;SDS011;64480;52.040;113.502;2024-02-23T13:03:07;64.95;;;25.73;;
75837;SDS011;64480;52.040;113.502;2024-02-23T13:06:11;34.15;;;16.38;;
75837;SDS011;64480;52.040;113.502;2024-02-23T13:09:18;62.50;;;21.27;;
75837;SDS011;64480;52.040;113.502;2024-02-23T13:12:26;61.90;;;21.27;;
75837;SDS011;64480;52.040;113.502;2024-02-23T13:15:30;65.13;;;21.10;;
75837;SDS011;64480;52.040;113.502;2024-02-23T13:18:34;49.88;;;20.42;;
75837;SDS011;64480;52.040;113.502;2024-02-23T13:21:42;41.53;;;17.90;;
75837;SDS011;64480;52.040;113.502;2024-02-23T13:24:46;41.17;;;14.98;;
75837;SDS011;64480;52.040;113.502;2024-02-23T13:27:52;35.03;;;12.75;;
75837;SDS011;64480;52.040;113.502;2024-02-23T13:30:56;23.75;;;11.10;;
75837;SDS011;64480;52.040;113.502;2024-02-23T13:34:08;34.20;;;13.55;;
75837;SDS011;64480;52.040;113.502;2024-02-23T13:37:13;28.63;;;10.70;;
75837;SDS011;64480;52.040;113.502;2024-02-23T13:40:19;20.65;;;5.47;;
75837;SDS011;64480;52.040;113.502;2024-02-23T13:43:23;12.40;;;5.75;;
75837;SDS011;64480;52.040;113.502;2024-02-23T13:46:27;36.33;;;17.02;;
75837;SDS011;64480;52.040;113.502;2024-02-23T13:49:32;16.35;;;5.75;;
75837;SDS011;64480;52.040;113.502;2024-02-23T13:52:36;7.85;;;3.88;;
75837;SDS011;64480;52.040;113.502;2024-02-23T13:55:42;25.13;;;12.50;;
75837;SDS011;64480;52.040;113.502;2024-02-23T13:58:49;18.63;;;7.22;;
75837;SDS011;64480;52.040;113.502;2024-02-23T14:01:53;7.80;;;3.22;;
75837;SDS011;64480;52.040;113.502;2024-02-23T14:05:02;12.60;;;4.32;;
75837;SDS011;64480;52.040;113.502;2024-02-23T14:08:07;16.02;;;6.72;;
75837;SDS011;64480;52.040;113.502;2024-02-23T14:11:11;41.33;;;9.70;;
75837;SDS011;64480;52.040;113.502;2024-02-23T14:14:17;32.60;;;10.10;;
75837;SDS011;64480;52.040;113.502;2024-02-23T14:17:22;35.35;;;12.40;;
75837;SDS011;64480;52.040;113.502;2024-02-23T14:20:28;35.88;;;13.02;;
75837;SDS011;64480;52.040;113.502;2024-02-23T14:23:34;46.85;;;13.50;;
75837;SDS011;64480;52.040;113.502;2024-02-23T14:26:39;19.77;;;7.72;;
75837;SDS011;64480;52.040;113.502;2024-02-23T14:29:45;26.63;;;8.68;;
75837;SDS011;64480;52.040;113.502;2024-02-23T14:32:52;26.55;;;8.55;;
75837;SDS011;64480;52.040;113.502;2024-02-23T14:35:59;11.48;;;5.70;;
75837;SDS011;64480;52.040;113.502;2024-02-23T14:39:10;8.63;;;4.88;;
75837;SDS011;64480;52.040;113.502;2024-02-23T14:42:18;17.00;;;5.78;;
75837;SDS011;64480;52.040;113.502;2024-02-23T14:45:27;15.02;;;6.43;;
75837;SDS011;64480;52.040;113.502;2024-02-23T14:48:32;17.08;;;5.88;;
75837;SDS011;64480;52.040;113.502;2024-02-23T14:51:36;7.65;;;4.05;;
75837;SDS011;64480;52.040;113.502;2024-02-23T14:54:41;18.10;;;6.20;;
75837;SDS011;64480;52.040;113.502;2024-02-23T14:57:46;24.23;;;6.47;;
75837;SDS011;64480;52.040;113.502;2024-02-23T15:01:02;16.88;;;9.55;;
75837;SDS011;64480;52.040;113.502;2024-02-23T15:04:09;22.63;;;8.52;;
75837;SDS011;64480;52.040;113.502;2024-02-23T15:07:16;64.43;;;22.50;;
75837;SDS011;64480;52.040;113.502;2024-02-23T15:10:22;44.03;;;19.98;;
75837;SDS011;64480;52.040;113.502;2024-02-23T15:13:29;52.67;;;18.00;;
75837;SDS011;64480;52.040;113.502;2024-02-23T15:16:37;36.88;;;17.75;;
75837;SDS011;64480;52.040;113.502;2024-02-23T15:19:43;35.90;;;16.52;;
75837;SDS011;64480;52.040;113.502;2024-02-23T15:22:48;65.32;;;20.25;;
75837;SDS011;64480;52.040;113.502;2024-02-23T15:25:55;45.08;;;19.02;;
75837;SDS011;64480;52.040;113.502;2024-02-23T15:29:12;32.40;;;18.15;;
75837;SDS011;64480;52.040;113.502;2024-02-23T15:32:17;41.33;;;19.48;;
75837;SDS011;64480;52.040;113.502;2024-02-23T15:35:22;43.65;;;17.00;;
75837;SDS011;64480;52.040;113.502;2024-02-23T15:38:30;38.00;;;16.55;;
75837;SDS011;64480;52.040;113.502;2024-02-23T15:41:37;40.78;;;15.18;;
75837;SDS011;64480;52.040;113.502;2024-02-23T15:44:42;43.47;;;16.90;;
75837;SDS011;64480;52.040;113.502;2024-02-23T15:47:52;29.48;;;17.05;;
75837;SDS011;64480;52.040;113.502;2024-02-23T15:51:04;36.45;;;11.80;;
75837;SDS011;64480;52.040;113.502;2024-02-23T15:54:30;33.95;;;13.48;;
75837;SDS011;64480;52.040;113.502;2024-02-23T15:57:36;19.75;;;9.73;;
75837;SDS011;64480;52.040;113.502;2024-02-23T16:00:44;24.63;;;9.93;;
75837;SDS011;64480;52.040;113.502;2024-02-23T16:03:49;18.23;;;8.25;;
75837;SDS011;64480;52.040;113.502;2024-02-23T16:06:55;12.77;;;6.53;;
75837;SDS011;64480;52.040;113.502;2024-02-23T16:10:07;16.70;;;9.00;;
75837;SDS011;64480;52.040;113.502;2024-02-23T16:13:16;12.88;;;6.30;;
75837;SDS011;64480;52.040;113.502;2024-02-23T16:16:21;18.00;;;6.65;;
75837;SDS011;64480;52.040;113.502;2024-02-23T16:19:26;16.25;;;6.22;;
75837;SDS011;64480;52.040;113.502;2024-02-23T16:22:29;22.23;;;6.65;;
75837;SDS011;64480;52.040;113.502;2024-02-23T16:25:33;24.45;;;7.40;;
75837;SDS011;64480;52.040;113.502;2024-02-23T16:28:39;14.38;;;6.35;;
75837;SDS011;64480;52.040;113.502;2024-02-23T16:31:46;13.68;;;6.50;;
75837;SDS011;64480;52.040;113.502;2024-02-23T16:34:49;23.40;;;8.23;;
75837;SDS011;64480;52.040;113.502;2024-02-23T16:37:54;18.42;;;8.43;;
75837;SDS011;64480;52.040;113.502;2024-02-23T16:40:59;29.33;;;6.65;;
75837;SDS011;64480;52.040;113.502;2024-02-23T16:44:05;11.82;;;6.18;;
75837;SDS011;64480;52.040;113.502;2024-02-23T16:47:08;12.40;;;6.32;;
75837;SDS011;64480;52.040;113.502;2024-02-23T16:50:13;12.82;;;5.60;;
75837;SDS011;64480;52.040;113.502;2024-02-23T16:53:20;31.02;;;5.57;;
75837;SDS011;64480;52.040;113.502;2024-02-23T16:56:25;6.60;;;3.13;;
75837;SDS011;64480;52.040;113.502;2024-02-23T16:59:30;8.15;;;3.40;;
75837;SDS011;64480;52.040;113.502;2024-02-23T17:02:38;7.03;;;4.20;;
75837;SDS011;64480;52.040;113.502;2024-02-23T17:05:43;8.95;;;3.53;;
75837;SDS011;64480;52.040;113.502;2024-02-23T17:08:50;11.75;;;3.95;;
75837;SDS011;64480;52.040;113.502;2024-02-23T17:11:58;9.10;;;3.95;;
75837;SDS011;64480;52.040;113.502;2024-02-23T17:15:04;13.68;;;4.75;;
75837;SDS011;64480;52.040;113.502;2024-02-23T17:18:09;7.47;;;4.28;;
75837;SDS011;64480;52.040;113.502;2024-02-23T17:21:15;9.50;;;4.90;;
75837;SDS011;64480;52.040;113.502;2024-02-23T17:24:19;20.35;;;6.13;;
75837;SDS011;64480;52.040;113.502;2024-02-23T17:27:24;6.18;;;3.78;;
75837;SDS011;64480;52.040;113.502;2024-02-23T17:30:29;21.25;;;6.25;;
75837;SDS011;64480;52.040;113.502;2024-02-23T17:33:34;6.22;;;3.15;;
75837;SDS011;64480;52.040;113.502;2024-02-23T17:36:40;11.70;;;5.28;;
75837;SDS011;64480;52.040;113.502;2024-02-23T17:39:46;8.52;;;4.90;;
75837;SDS011;64480;52.040;113.502;2024-02-23T17:42:51;3.97;;;3.03;;
75837;SDS011;64480;52.040;113.502;2024-02-23T17:45:57;5.75;;;3.80;;
75837;SDS011;64480;52.040;113.502;2024-02-23T17:49:05;8.77;;;3.97;;
75837;SDS011;64480;52.040;113.502;2024-02-23T17:52:14;11.35;;;4.40;;